createdAt,value
2023-03-25T00:00:33.228Z,97709.48
2023-03-25T00:03:51.173Z,97716.61
2023-03-25T00:07:03.926Z,97715.69
2023-03-25T00:10:18.663Z,97713.41
2023-03-25T00:13:32.090Z,97713.61
2023-03-25T00:16:46.772Z,97716.44
2023-03-25T00:20:00.800Z,97709.47
2023-03-25T00:23:13.299Z,97708.83
2023-03-25T00:26:30.155Z,97701.46
2023-03-25T00:29:40.585Z,97698.80
2023-03-25T00:32:54.129Z,97696.57
2023-03-25T00:36:07.849Z,97693.27
2023-03-25T00:39:20.139Z,97698.05
2023-03-25T00:42:34.556Z,97683.31
2023-03-25T00:45:46.941Z,97684.78
2023-03-25T00:49:00.278Z,97681.09
2023-03-25T00:52:14.230Z,97681.09
2023-03-25T00:55:27.755Z,97683.75
2023-03-25T00:58:40.416Z,97687.25
2023-03-25T01:01:53.586Z,97689.28
2023-03-25T01:05:07.986Z,97693.59
2023-03-25T01:08:22.537Z,97685.98
2023-03-25T01:11:38.662Z,97687.38
2023-03-25T01:14:51.651Z,97685.34
2023-03-25T01:18:03.937Z,97685.98
2023-03-25T01:21:17.306Z,97684.51
2023-03-25T01:24:29.857Z,97680.56
2023-03-25T01:27:41.970Z,97672.95
2023-03-25T01:30:54.171Z,97679.92
2023-03-25T01:34:07.652Z,97679.56
2023-03-25T01:37:19.731Z,97691.04
2023-03-25T01:40:32.195Z,97689.13
2023-03-25T01:43:44.712Z,97681.52
2023-03-25T01:46:59.388Z,97692.18
2023-03-25T01:50:15.544Z,97685.18
2023-03-25T01:53:28.071Z,97676.56
2023-03-25T01:56:45.176Z,97678.13
2023-03-25T01:59:59.796Z,97669.32
2023-03-25T02:03:13.426Z,97660.84
2023-03-25T02:06:32.357Z,97667.20
2023-03-25T02:09:45.168Z,97665.73
2023-03-25T02:12:57.588Z,97657.48
2023-03-25T02:16:31.841Z,97658.48
2023-03-25T02:20:18.127Z,97656.56
2023-03-25T02:24:14.756Z,97668.61
2023-03-25T02:27:36.942Z,97667.97
2023-03-25T02:31:46.031Z,97664.22
2023-03-25T02:35:22.584Z,97669.35
2023-03-25T02:38:43.839Z,97669.19
2023-03-25T02:42:01.923Z,97672.86
2023-03-25T02:45:19.126Z,97675.33
2023-03-25T02:48:33.433Z,97677.83
2023-03-25T02:51:51.522Z,97682.78
2023-03-25T02:55:10.443Z,97674.58
2023-03-25T02:58:25.857Z,97687.27
2023-03-25T03:01:38.172Z,97687.27
2023-03-25T03:04:59.488Z,97678.08
2023-03-25T03:08:26.719Z,97688.94
2023-03-25T03:11:43.160Z,97687.72
2023-03-25T03:15:15.257Z,97692.25
2023-03-25T03:18:38.311Z,97685.89
2023-03-25T03:21:55.912Z,97685.70
2023-03-25T03:25:14.162Z,97695.91
2023-03-25T03:28:32.158Z,97697.58
2023-03-25T03:32:06.201Z,97695.27
2023-03-25T03:35:08.299Z,97704.48
2023-03-25T03:38:23.881Z,97702.17
2023-03-25T03:41:40.343Z,97710.63
2023-03-25T03:44:57.412Z,97706.03
2023-03-25T03:48:10.450Z,97711.75
2023-03-25T03:51:29.595Z,97719.94
2023-03-25T03:54:46.784Z,97723.41
2023-03-25T03:58:04.253Z,97729.13
2023-03-25T04:01:23.537Z,97726.81
2023-03-25T04:04:38.492Z,97728.48
2023-03-25T04:07:57.364Z,97736.79
2023-03-25T04:11:15.504Z,97730.47
2023-03-25T04:14:28.239Z,97736.15
2023-03-25T04:17:40.807Z,97744.79
2023-03-25T04:20:53.586Z,97751.79
2023-03-25T04:24:07.915Z,97758.11
2023-03-25T04:27:23.187Z,97759.14
2023-03-25T04:30:37.869Z,97765.20
2023-03-25T04:33:51.091Z,97769.61
2023-03-25T04:37:03.341Z,97767.03
2023-03-25T04:40:18.973Z,97767.75
2023-03-25T04:43:32.125Z,97770.84
2023-03-25T04:46:45.681Z,97770.84
2023-03-25T04:49:57.858Z,97771.86
2023-03-25T04:53:10.106Z,97771.81
2023-03-25T04:56:24.937Z,97780.70
2023-03-25T04:59:37.061Z,97776.98
2023-03-25T05:02:54.260Z,97788.28
2023-03-25T05:06:06.606Z,97791.00
2023-03-25T05:09:24.626Z,97804.22
2023-03-25T05:12:37.018Z,97806.70
2023-03-25T05:15:50.864Z,97804.22
2023-03-25T05:19:03.656Z,97809.91
2023-03-25T05:22:16.113Z,97811.64
2023-03-25T05:25:29.325Z,97804.20
2023-03-25T05:28:41.898Z,97817.66
2023-03-25T05:31:54.591Z,97819.66
2023-03-25T05:35:07.693Z,97809.39
2023-03-25T05:38:21.851Z,97797.44
2023-03-25T05:41:39.025Z,97803.75
2023-03-25T05:44:51.893Z,97814.74
2023-03-25T05:48:04.270Z,97815.43
2023-03-25T05:51:21.914Z,97833.72
2023-03-25T05:54:34.198Z,97825.23
2023-03-25T05:57:46.320Z,97835.06
2023-03-25T06:00:59.991Z,97835.86
2023-03-25T06:04:13.591Z,97831.56
2023-03-25T06:07:26.246Z,97832.70
2023-03-25T06:10:39.132Z,97822.72
2023-03-25T06:13:53.856Z,97831.00
2023-03-25T06:17:05.985Z,97830.05
2023-03-25T06:20:20.286Z,97837.66
2023-03-25T06:23:34.954Z,97846.00
2023-03-25T06:26:47.477Z,97841.52
2023-03-25T06:29:59.812Z,97844.95
2023-03-25T06:33:11.986Z,97852.42
2023-03-25T06:36:26.132Z,97836.28
2023-03-25T06:39:39.160Z,97843.27
2023-03-25T06:42:53.528Z,97848.77
2023-03-25T06:46:24.734Z,97841.78
2023-03-25T06:49:42.100Z,97850.89
2023-03-25T06:52:54.412Z,97863.50
2023-03-25T06:56:06.619Z,97860.37
2023-03-25T06:59:18.808Z,97868.64
2023-03-25T07:02:31.385Z,97869.30
2023-03-25T07:05:43.891Z,97865.29
2023-03-25T07:08:56.808Z,97862.52
2023-03-25T07:12:09.824Z,97863.47
2023-03-25T07:15:22.733Z,97866.45
2023-03-25T07:18:36.019Z,97862.77
2023-03-25T07:21:48.920Z,97865.25
2023-03-25T07:25:03.378Z,97869.31
2023-03-25T07:28:15.887Z,97865.53
2023-03-25T07:31:30.249Z,97859.97
2023-03-25T07:34:42.624Z,97861.56
2023-03-25T07:37:55.400Z,97861.88
2023-03-25T07:41:11.893Z,97857.48
2023-03-25T07:44:27.480Z,97865.80
2023-03-25T07:47:39.985Z,97857.38
2023-03-25T07:50:52.448Z,97838.66
2023-03-25T07:54:05.474Z,97843.66
2023-03-25T07:57:19.029Z,97846.79
2023-03-25T08:00:31.719Z,97842.07
2023-03-25T08:03:44.085Z,97834.72
2023-03-25T08:06:56.287Z,97823.16
2023-03-25T08:10:09.434Z,97833.66
2023-03-25T08:13:21.666Z,97829.70
2023-03-25T08:16:34.180Z,97827.55
2023-03-25T08:19:46.420Z,97831.79
2023-03-25T08:22:59.401Z,97839.52
2023-03-25T08:26:12.802Z,97840.97
2023-03-25T08:29:25.593Z,97839.73
2023-03-25T08:32:38.760Z,97827.88
2023-03-25T08:35:51.410Z,97833.09
2023-03-25T08:39:06.038Z,97830.21
2023-03-25T08:42:19.608Z,97834.66
2023-03-25T08:45:33.078Z,97833.75
2023-03-25T08:48:45.605Z,97831.78
2023-03-25T08:51:58.628Z,97814.80
2023-03-25T08:55:12.676Z,97815.99
2023-03-25T08:58:25.295Z,97810.59
2023-03-25T09:01:37.975Z,97805.13
2023-03-25T09:04:50.505Z,97811.82
2023-03-25T09:08:02.722Z,97810.30
2023-03-25T09:11:19.718Z,97802.03
2023-03-25T09:14:30.044Z,97798.28
2023-03-25T09:17:43.249Z,97793.44
2023-03-25T09:20:56.588Z,97780.30
2023-03-25T09:24:09.281Z,97763.47
2023-03-25T09:27:21.727Z,97760.48
2023-03-25T09:30:34.230Z,97753.80
2023-03-25T09:33:46.950Z,97751.18
2023-03-25T09:37:00.195Z,97754.56
2023-03-25T09:40:17.290Z,97759.44
2023-03-25T09:43:47.724Z,97751.20
2023-03-25T09:47:06.380Z,97737.08
2023-03-25T09:50:22.861Z,97737.88
2023-03-25T09:53:42.292Z,97721.62
2023-03-25T09:56:55.609Z,97722.91
2023-03-25T10:00:21.765Z,97727.36
2023-03-25T10:03:42.640Z,97712.54
2023-03-25T10:07:01.095Z,97707.42
2023-03-25T10:10:19.985Z,97708.20
2023-03-25T10:13:39.029Z,97699.41
2023-03-25T10:17:03.177Z,97695.09
2023-03-25T10:20:22.513Z,97699.98
2023-03-25T10:23:41.560Z,97702.09
2023-03-25T10:26:58.228Z,97703.95
2023-03-25T10:30:17.365Z,97706.92
2023-03-25T10:33:36.098Z,97701.82
2023-03-25T10:36:55.186Z,97694.67
2023-03-25T10:40:24.769Z,97698.26
2023-03-25T10:43:40.966Z,97694.92
2023-03-25T10:46:58.500Z,97700.56
2023-03-25T10:50:14.236Z,97683.73
2023-03-25T10:53:30.599Z,97695.55
2023-03-25T10:56:47.229Z,97679.27
2023-03-25T11:00:12.398Z,97661.69
2023-03-25T11:03:31.263Z,97652.34
2023-03-25T11:06:46.980Z,97653.66
2023-03-25T11:09:59.686Z,97648.13
2023-03-25T11:13:18.815Z,97643.05
2023-03-25T11:16:32.224Z,97642.79
2023-03-25T11:19:51.225Z,97639.39
2023-03-25T11:23:10.952Z,97636.24
2023-03-25T11:26:27.673Z,97634.73
2023-03-25T11:29:41.972Z,97627.95
2023-03-25T11:33:03.415Z,97631.70
2023-03-25T11:36:34.990Z,97627.34
2023-03-25T11:39:48.864Z,97626.80
2023-03-25T11:43:04.601Z,97621.15
2023-03-25T11:46:20.557Z,97637.33
2023-03-25T11:49:35.725Z,97635.44
2023-03-25T11:52:51.750Z,97613.16
2023-03-25T11:56:04.842Z,97600.85
2023-03-25T11:59:26.344Z,97619.48
2023-03-25T12:02:44.724Z,97607.42
2023-03-25T12:06:10.667Z,97611.27
2023-03-25T12:09:23.818Z,97614.94
2023-03-25T12:12:50.988Z,97617.84
2023-03-25T12:16:14.399Z,97620.77
2023-03-25T12:19:34.167Z,97627.91
2023-03-25T12:23:06.569Z,97637.38
2023-03-25T12:26:23.788Z,97650.74
2023-03-25T12:29:47.633Z,97647.84
2023-03-25T12:33:05.812Z,97661.77
2023-03-25T12:36:39.454Z,97661.24
2023-03-25T12:40:03.805Z,97647.33
2023-03-25T12:43:21.856Z,97672.50
2023-03-25T12:46:49.924Z,97663.01
2023-03-25T12:50:22.694Z,97673.65
2023-03-25T12:53:48.635Z,97664.62
2023-03-25T12:57:12.184Z,97672.67
2023-03-25T13:00:49.824Z,97677.64
2023-03-25T13:04:38.439Z,97680.94
2023-03-25T13:07:56.596Z,97692.42
2023-03-25T13:11:16.518Z,97689.54
2023-03-25T13:14:33.506Z,97690.37
2023-03-25T13:17:48.104Z,97681.79
2023-03-25T13:21:13.814Z,97681.61
2023-03-25T13:24:26.424Z,97682.23
2023-03-25T13:27:43.856Z,97668.62
2023-03-25T13:30:58.315Z,97675.19
2023-03-25T13:34:23.066Z,97676.25
2023-03-25T13:37:45.514Z,97666.33
2023-03-25T13:41:06.735Z,97655.94
2023-03-25T13:44:24.737Z,97643.98
2023-03-25T13:47:41.898Z,97648.95
2023-03-25T13:50:55.176Z,97639.52
2023-03-25T13:54:12.922Z,97636.62
2023-03-25T13:58:18.575Z,97634.97
2023-03-25T14:01:52.562Z,97643.98
2023-03-25T14:06:00.208Z,97639.49
2023-03-25T14:09:34.825Z,97639.09
2023-03-25T14:12:51.433Z,97646.52
2023-03-25T14:16:10.599Z,97634.98
2023-03-25T14:19:27.432Z,97634.75
2023-03-25T14:22:43.988Z,97648.77
2023-03-25T14:26:00.477Z,97643.22
2023-03-25T14:29:23.168Z,97646.87
2023-03-25T14:32:44.872Z,97659.19
2023-03-25T14:36:00.476Z,97652.38
2023-03-25T14:39:19.980Z,97646.02
2023-03-25T14:43:03.341Z,97646.03
2023-03-25T14:46:29.740Z,97640.28
2023-03-25T14:50:01.915Z,97637.60
2023-03-25T14:53:19.050Z,97643.59
2023-03-25T14:56:33.020Z,97640.68
2023-03-25T14:59:50.073Z,97642.56
2023-03-25T15:03:09.107Z,97641.92
2023-03-25T15:06:26.819Z,97646.84
2023-03-25T15:09:41.606Z,97635.67
2023-03-25T15:12:59.867Z,97635.41
2023-03-25T15:16:22.719Z,97634.66
2023-03-25T15:19:35.525Z,97637.25
2023-03-25T15:22:47.927Z,97639.33
2023-03-25T15:26:03.484Z,97631.86
2023-03-25T15:29:43.507Z,97645.61
2023-03-25T15:33:06.348Z,97653.38
2023-03-25T15:36:39.084Z,97657.59
2023-03-25T15:40:22.768Z,97655.41
2023-03-25T15:44:24.156Z,97671.39
2023-03-25T15:48:23.003Z,97658.38
2023-03-25T15:52:08.656Z,97657.26
2023-03-25T15:55:25.550Z,97663.70
2023-03-25T15:58:43.518Z,97671.42
2023-03-25T16:01:58.351Z,97667.69
2023-03-25T16:05:13.266Z,97674.05
2023-03-25T16:08:31.629Z,97686.57
2023-03-25T16:11:50.118Z,97682.19
2023-03-25T16:15:03.355Z,97687.34
2023-03-25T16:18:19.550Z,97693.55
2023-03-25T16:21:34.124Z,97687.38
2023-03-25T16:24:47.068Z,97681.12
2023-03-25T16:28:02.505Z,97692.63
2023-03-25T16:31:22.513Z,97696.63
2023-03-25T16:34:40.231Z,97699.41
2023-03-25T16:37:52.669Z,97708.40
2023-03-25T16:41:11.827Z,97715.76
2023-03-25T16:44:27.719Z,97708.50
2023-03-25T16:47:40.612Z,97710.81
2023-03-25T16:50:54.667Z,97715.22
2023-03-25T16:54:09.112Z,97716.41
2023-03-25T16:57:26.064Z,97722.52
2023-03-25T17:00:47.824Z,97720.94
2023-03-25T17:04:12.419Z,97716.30
2023-03-25T17:07:29.886Z,97725.87
2023-03-25T17:10:51.334Z,97712.25
2023-03-25T17:14:09.181Z,97723.38
2023-03-25T17:17:36.127Z,97719.80
2023-03-25T17:20:51.946Z,97721.52
2023-03-25T17:24:08.258Z,97720.03
2023-03-25T17:27:34.730Z,97724.07
2023-03-25T17:30:50.870Z,97728.94
2023-03-25T17:34:11.185Z,97728.02
2023-03-25T17:37:25.745Z,97738.30
2023-03-25T17:40:38.855Z,97741.52
2023-03-25T17:43:54.454Z,97752.39
2023-03-25T17:47:06.899Z,97760.76
2023-03-25T17:50:32.985Z,97761.59
2023-03-25T17:53:45.307Z,97761.28
2023-03-25T17:56:58.521Z,97764.41
2023-03-25T18:00:15.451Z,97758.28
2023-03-25T18:03:30.948Z,97763.48
2023-03-25T18:06:43.496Z,97764.01
2023-03-25T18:09:56.056Z,97752.43
2023-03-25T18:13:09.014Z,97755.48
2023-03-25T18:16:23.846Z,97757.03
2023-03-25T18:19:37.098Z,97761.23
2023-03-25T18:22:49.390Z,97765.90
2023-03-25T18:26:04.356Z,97765.77
2023-03-25T18:29:23.216Z,97768.14
2023-03-25T18:32:36.012Z,97737.34
2023-03-25T18:35:48.885Z,97767.16
2023-03-25T18:39:02.417Z,97759.88
2023-03-25T18:42:14.913Z,97771.53
2023-03-25T18:45:29.594Z,97766.70
2023-03-25T18:48:42.009Z,97769.35
2023-03-25T18:51:54.331Z,97771.53
2023-03-25T18:55:06.513Z,97774.84
2023-03-25T18:58:24.820Z,97770.00
2023-03-25T19:01:37.362Z,97780.30
2023-03-25T19:05:00.008Z,97786.10
2023-03-25T19:08:05.897Z,97793.06
2023-03-25T19:11:21.781Z,97793.24
2023-03-25T19:14:33.624Z,97793.06
2023-03-25T19:17:46.056Z,97790.77
2023-03-25T19:20:59.495Z,97787.49
2023-03-25T19:24:13.070Z,97792.81
2023-03-25T19:27:25.392Z,97788.16
2023-03-25T19:30:38.149Z,97798.49
2023-03-25T19:33:50.897Z,97793.20
2023-03-25T19:37:05.511Z,97798.38
2023-03-25T19:40:20.518Z,97797.72
2023-03-25T19:43:33.061Z,97796.55
2023-03-25T19:46:45.343Z,97789.05
2023-03-25T19:49:57.776Z,97792.55
2023-03-25T19:53:11.710Z,97791.38
2023-03-25T19:56:24.028Z,97796.88
2023-03-25T19:59:36.758Z,97798.22
2023-03-25T20:02:52.186Z,97798.58
2023-03-25T20:06:06.971Z,97794.61
2023-03-25T20:09:19.481Z,97796.13
2023-03-25T20:12:32.639Z,97801.27
2023-03-25T20:15:45.265Z,97800.78
2023-03-25T20:18:57.603Z,97800.95
2023-03-25T20:22:23.961Z,97798.97
2023-03-25T20:25:25.832Z,97792.49
2023-03-25T20:28:38.197Z,97794.19
2023-03-25T20:31:50.403Z,97794.69
2023-03-25T20:35:04.437Z,97793.19
2023-03-25T20:38:17.382Z,97797.69
2023-03-25T20:41:29.628Z,97790.05
2023-03-25T20:44:43.832Z,97789.73
2023-03-25T20:47:56.317Z,97798.70
2023-03-25T20:51:12.292Z,97795.87
2023-03-25T20:54:25.313Z,97792.23
2023-03-25T20:57:37.841Z,97803.70
2023-03-25T21:00:50.277Z,97802.37
2023-03-25T21:04:04.756Z,97798.39
2023-03-25T21:07:19.473Z,97799.89
2023-03-25T21:10:31.817Z,97795.38
2023-03-25T21:13:44.342Z,97803.34
2023-03-25T21:16:56.650Z,97809.00
2023-03-25T21:20:10.710Z,97808.83
2023-03-25T21:23:25.545Z,97809.84
2023-03-25T21:26:38.027Z,97811.97
2023-03-25T21:29:50.520Z,97813.83
2023-03-25T21:33:03.264Z,97807.02
2023-03-25T21:36:20.700Z,97799.36
2023-03-25T21:39:33.238Z,97805.16
2023-03-25T21:42:46.499Z,97808.34
2023-03-25T21:45:59.204Z,97811.00
2023-03-25T21:49:14.146Z,97809.00
2023-03-25T21:52:26.636Z,97811.66
2023-03-25T21:55:40.065Z,97821.62
2023-03-25T21:58:53.258Z,97809.67
2023-03-25T22:02:06.257Z,97814.98
2023-03-25T22:05:20.921Z,97817.29
2023-03-25T22:08:33.363Z,97826.09
2023-03-25T22:11:46.003Z,97821.44
2023-03-25T22:14:58.272Z,97827.89
2023-03-25T22:18:10.889Z,97826.42
2023-03-25T22:21:26.784Z,97833.55
2023-03-25T22:24:39.218Z,97842.84
2023-03-25T22:27:51.649Z,97845.16
2023-03-25T22:31:04.536Z,97856.11
2023-03-25T22:34:19.404Z,97855.28
2023-03-25T22:37:32.028Z,97858.42
2023-03-25T22:40:44.413Z,97863.07
2023-03-25T22:43:57.849Z,97863.23
2023-03-25T22:47:10.516Z,97867.87
2023-03-25T22:50:23.187Z,97856.09
2023-03-25T22:53:35.936Z,97860.23
2023-03-25T22:56:48.782Z,97866.86
2023-03-25T23:00:01.473Z,97869.81
2023-03-25T23:03:14.200Z,97867.11
2023-03-25T23:06:26.997Z,97864.97
2023-03-25T23:09:48.010Z,97872.90
2023-03-25T23:13:00.434Z,97873.51
2023-03-25T23:16:17.261Z,97863.20
2023-03-25T23:19:29.458Z,97870.31
2023-03-25T23:22:41.724Z,97857.20
2023-03-25T23:25:54.426Z,97859.51
2023-03-25T23:29:09.183Z,97865.45
2023-03-25T23:32:21.997Z,97869.41
2023-03-25T23:35:35.688Z,97861.41
2023-03-25T23:38:48.423Z,97867.34
2023-03-25T23:42:01.660Z,97865.98
2023-03-25T23:45:16.731Z,97870.56
2023-03-25T23:48:30.264Z,97865.59
2023-03-25T23:51:45.942Z,97877.16
2023-03-25T23:54:58.145Z,97875.97
2023-03-25T23:58:10.343Z,97875.97
